Time;durP1;ratioP1;P1;durP2;ratioP2;P2;SDS_P1;SDS_P2;PMS_P1;PMS_P2;Temp;Humidity;BMP_temperature;BMP_pressure;BME280_temperature;BME280_humidity;BME280_pressure;Samples;Min_cycle;Max_cycle;Signal;HPM_P1;HPM_P2
2021/07/09 00:01:23;;;;;;;3.73;3.40;;;;;;;;;;5057916;28;20562;-73
2021/07/09 00:03:49;;;;;;;4.00;3.70;;;;;;;;;;5074914;28;20435;-74
2021/07/09 00:06:17;;;;;;;2.77;2.53;;;;;;;;;;5074823;28;20788;-73
2021/07/09 00:08:43;;;;;;;4.03;3.10;;;;;;;;;;5035797;28;20430;-72
2021/07/09 00:11:09;;;;;;;5.87;2.97;;;;;;;;;;5053782;28;20481;-72
2021/07/09 00:13:35;;;;;;;3.40;2.70;;;;;;;;;;5053384;28;20521;-73
2021/07/09 00:16:02;;;;;;;3.30;3.00;;;;;;;;;;5054464;28;20793;-73
2021/07/09 00:18:28;;;;;;;3.33;2.77;;;;;;;;;;5054319;28;20529;-73
2021/07/09 00:20:54;;;;;;;3.60;3.30;;;;;;;;;;5052942;28;20477;-74
2021/07/09 00:23:20;;;;;;;3.03;2.80;;;;;;;;;;5053826;28;20481;-72
2021/07/09 00:25:46;;;;;;;3.70;2.97;;;;;;;;;;5061932;28;20426;-72
2021/07/09 00:28:12;;;;;;;5.50;3.17;;;;;;;;;;5055899;28;20929;-74
2021/07/09 00:30:38;;;;;;;3.93;3.60;;;;;;;;;;5073746;28;20418;-73
2021/07/09 00:33:04;;;;;;;5.17;2.97;;;;;;;;;;5074153;28;20782;-73
2021/07/09 00:35:30;;;;;;;4.20;3.03;;;;;;;;;;5073921;28;20433;-74
2021/07/09 00:37:56;;;;;;;3.80;3.17;;;;;;;;;;5055794;28;20434;-73
2021/07/09 00:40:22;;;;;;;4.87;4.00;;;;;;;;;;5073300;28;20552;-73
2021/07/09 00:42:48;;;;;;;9.47;3.80;;;;;;;;;;5073364;28;20660;-73
2021/07/09 00:45:15;;;;;;;3.37;3.07;;;;;;;;;;5070521;28;20927;-73
2021/07/09 00:47:44;;;;;;;3.30;3.10;;;;;;;;;;5073712;28;20499;-73
2021/07/09 00:50:11;;;;;;;3.93;3.53;;;;;;;;;;5073576;28;20441;-73
2021/07/09 00:52:37;;;;;;;3.13;2.93;;;;;;;;;;5055501;28;20438;-73
2021/07/09 00:55:03;;;;;;;6.90;3.23;;;;;;;;;;5073033;28;20734;-73
2021/07/09 00:57:29;;;;;;;3.47;3.17;;;;;;;;;;5072695;28;20466;-74
2021/07/09 00:59:55;;;;;;;4.50;3.83;;;;;;;;;;5073326;28;20826;-73
2021/07/09 01:02:23;;;;;;;3.43;3.23;;;;;;;;;;5052497;28;20621;-73
2021/07/09 01:04:51;;;;;;;3.87;3.23;;;;;;;;;;5073414;28;20962;-74
2021/07/09 01:07:17;;;;;;;3.63;3.23;;;;;;;;;;5073410;28;20837;-74
2021/07/09 01:09:43;;;;;;;4.17;3.77;;;;;;;;;;5073070;28;20510;-72
2021/07/09 01:12:11;;;;;;;5.10;4.70;;;;;;;;;;5054032;28;20453;-74
2021/07/09 01:14:37;;;;;;;4.20;3.80;;;;;;;;;;5061044;28;20506;-74
2021/07/09 01:17:03;;;;;;;4.80;3.23;;;;;;;;;;5053117;28;20426;-73
2021/07/09 01:19:29;;;;;;;5.23;3.67;;;;;;;;;;5035229;28;20439;-74
2021/07/09 01:21:55;;;;;;;5.10;3.90;;;;;;;;;;5052985;28;20497;-73
2021/07/09 01:24:23;;;;;;;7.67;4.77;;;;;;;;;;5052935;28;20407;-73
2021/07/09 01:26:49;;;;;;;6.93;4.33;;;;;;;;;;5051739;28;20469;-73
2021/07/09 01:29:15;;;;;;;5.00;4.03;;;;;;;;;;5052823;28;20900;-74
2021/07/09 01:31:42;;;;;;;6.53;4.37;;;;;;;;;;5052993;28;20427;-74
2021/07/09 01:34:08;;;;;;;4.30;3.87;;;;;;;;;;5052833;28;20452;-73
2021/07/09 01:36:34;;;;;;;3.70;3.40;;;;;;;;;;5052906;28;20649;-72
2021/07/09 01:39:00;;;;;;;3.43;3.13;;;;;;;;;;5053035;28;20411;-73
2021/07/09 01:41:26;;;;;;;4.13;2.90;;;;;;;;;;5034318;28;20462;-73
2021/07/09 01:43:53;;;;;;;3.53;3.23;;;;;;;;;;5034760;28;20423;-74
2021/07/09 01:46:19;;;;;;;3.00;2.80;;;;;;;;;;5052298;28;20423;-73
2021/07/09 01:48:45;;;;;;;4.97;3.20;;;;;;;;;;5052717;28;20469;-72
2021/07/09 01:51:11;;;;;;;3.00;2.80;;;;;;;;;;5052874;28;20828;-73
2021/07/09 01:53:37;;;;;;;4.10;2.43;;;;;;;;;;5052492;28;20407;-73
2021/07/09 01:56:03;;;;;;;4.00;3.30;;;;;;;;;;5034481;28;20422;-72
2021/07/09 01:58:29;;;;;;;3.40;3.10;;;;;;;;;;5052353;28;20426;-74
2021/07/09 02:00:55;;;;;;;3.10;2.70;;;;;;;;;;5052522;28;20426;-73
2021/07/09 02:03:21;;;;;;;3.13;2.80;;;;;;;;;;5052490;28;20561;-73
2021/07/09 02:05:47;;;;;;;2.63;2.43;;;;;;;;;;5052434;28;20422;-72
2021/07/09 02:08:13;;;;;;;2.93;2.73;;;;;;;;;;5034508;28;20427;-72
2021/07/09 02:10:41;;;;;;;3.13;2.83;;;;;;;;;;5052104;28;20419;-73
2021/07/09 02:13:07;;;;;;;2.83;2.63;;;;;;;;;;5052182;28;20438;-73
2021/07/09 02:15:36;;;;;;;5.33;3.17;;;;;;;;;;5034238;28;20475;-73
2021/07/09 02:18:02;;;;;;;2.73;2.40;;;;;;;;;;5052405;28;20434;-73
2021/07/09 02:20:29;;;;;;;5.83;2.53;;;;;;;;;;5052386;28;20434;-73
2021/07/09 02:22:56;;;;;;;5.00;2.70;;;;;;;;;;5051772;28;20485;-72
2021/07/09 02:25:22;;;;;;;4.40;3.07;;;;;;;;;;5052053;28;20418;-73
2021/07/09 02:27:49;;;;;;;3.47;2.30;;;;;;;;;;5034309;28;20469;-72
2021/07/09 02:30:16;;;;;;;3.07;2.83;;;;;;;;;;5052352;28;20422;-73
2021/07/09 02:32:42;;;;;;;2.70;2.50;;;;;;;;;;5051937;28;20462;-73
2021/07/09 02:35:10;;;;;;;4.30;2.67;;;;;;;;;;5052118;28;20530;-73
2021/07/09 02:37:36;;;;;;;2.60;2.40;;;;;;;;;;5054307;28;20422;-73
2021/07/09 02:40:02;;;;;;;2.00;1.90;;;;;;;;;;5055681;28;20965;-72
2021/07/09 02:42:28;;;;;;;2.80;2.60;;;;;;;;;;5035838;28;20597;-72
2021/07/09 02:44:54;;;;;;;3.20;2.90;;;;;;;;;;5036061;28;20906;-73
2021/07/09 02:47:20;;;;;;;3.40;2.27;;;;;;;;;;5035983;28;20436;-74
2021/07/09 02:49:46;;;;;;;2.80;2.47;;;;;;;;;;5035929;28;20469;-73
2021/07/09 02:52:12;;;;;;;3.07;2.47;;;;;;;;;;5051408;28;20430;-73
2021/07/09 02:54:38;;;;;;;2.80;2.20;;;;;;;;;;5055463;28;20407;-74
2021/07/09 02:57:04;;;;;;;2.20;2.03;;;;;;;;;;5055711;28;21063;-74
2021/07/09 02:59:30;;;;;;;2.67;2.47;;;;;;;;;;5055752;28;20417;-73
2021/07/09 03:01:56;;;;;;;4.97;2.70;;;;;;;;;;5034987;28;20466;-73
2021/07/09 03:04:22;;;;;;;2.80;2.60;;;;;;;;;;5055510;28;20430;-74
2021/07/09 03:06:48;;;;;;;4.43;3.40;;;;;;;;;;5055505;28;20418;-73
2021/07/09 03:09:14;;;;;;;2.40;2.20;;;;;;;;;;5055440;28;20415;-72
2021/07/09 03:11:40;;;;;;;4.20;2.50;;;;;;;;;;5054699;28;20943;-72
2021/07/09 03:14:07;;;;;;;3.63;2.60;;;;;;;;;;5061284;28;20458;-73
2021/07/09 03:16:33;;;;;;;3.80;2.37;;;;;;;;;;5057122;28;20461;-73
2021/07/09 03:18:59;;;;;;;2.70;2.50;;;;;;;;;;5057374;28;20505;-73
2021/07/09 03:21:25;;;;;;;2.70;2.50;;;;;;;;;;5075164;28;20449;-72
2021/07/09 03:23:51;;;;;;;2.50;2.30;;;;;;;;;;5057169;28;20796;-73
2021/07/09 03:26:17;;;;;;;2.20;2.00;;;;;;;;;;5074746;28;20410;-73
2021/07/09 03:28:43;;;;;;;3.40;2.70;;;;;;;;;;5075031;28;20424;-74
2021/07/09 03:31:09;;;;;;;3.97;2.90;;;;;;;;;;5074959;28;20431;-73
2021/07/09 03:33:35;;;;;;;3.30;2.80;;;;;;;;;;5075141;28;20420;-73
2021/07/09 03:36:02;;;;;;;2.57;2.20;;;;;;;;;;5075353;28;20406;-73
2021/07/09 03:38:28;;;;;;;2.83;2.60;;;;;;;;;;5074977;28;20924;-74
2021/07/09 03:40:53;;;;;;;3.83;2.87;;;;;;;;;;5074319;28;20646;-72
2021/07/09 03:43:19;;;;;;;3.77;2.70;;;;;;;;;;5074649;28;20474;-72
2021/07/09 03:45:45;;;;;;;3.30;3.00;;;;;;;;;;5074779;28;20843;-72
2021/07/09 03:48:11;;;;;;;3.07;2.70;;;;;;;;;;5074277;28;20430;-72
2021/07/09 03:50:37;;;;;;;4.13;2.57;;;;;;;;;;5074532;28;20414;-74
2021/07/09 03:53:03;;;;;;;3.37;3.07;;;;;;;;;;5074593;28;20865;-73
2021/07/09 03:55:29;;;;;;;3.93;2.90;;;;;;;;;;5056592;28;20438;-73
2021/07/09 03:57:55;;;;;;;3.70;3.40;;;;;;;;;;5074632;28;20429;-73
2021/07/09 04:00:21;;;;;;;3.50;3.13;;;;;;;;;;5074472;28;20920;-74
2021/07/09 04:02:47;;;;;;;4.57;3.20;;;;;;;;;;5056381;28;20539;-73
2021/07/09 04:05:13;;;;;;;3.60;3.07;;;;;;;;;;5074449;28;20406;-73
2021/07/09 04:07:40;;;;;;;3.57;3.33;;;;;;;;;;5074409;28;20955;-73
2021/07/09 04:10:06;;;;;;;4.70;3.20;;;;;;;;;;5073898;28;20931;-74
2021/07/09 04:12:32;;;;;;;4.23;3.00;;;;;;;;;;5074354;28;20418;-72
2021/07/09 04:14:58;;;;;;;3.00;2.80;;;;;;;;;;5074193;28;20469;-74
2021/07/09 04:17:24;;;;;;;5.43;3.60;;;;;;;;;;5073989;28;20426;-74
2021/07/09 04:19:51;;;;;;;3.90;3.60;;;;;;;;;;5074091;28;20417;-73
2021/07/09 04:22:17;;;;;;;3.47;3.10;;;;;;;;;;5073935;28;20466;-72
2021/07/09 04:24:43;;;;;;;8.67;3.33;;;;;;;;;;5055608;28;20444;-74
2021/07/09 04:27:09;;;;;;;4.00;3.10;;;;;;;;;;5073839;28;20509;-74
2021/07/09 04:29:35;;;;;;;3.70;3.23;;;;;;;;;;5074026;28;20410;-73
2021/07/09 04:32:01;;;;;;;4.40;3.53;;;;;;;;;;5092292;28;20987;-73
2021/07/09 04:34:27;;;;;;;4.40;3.20;;;;;;;;;;5076039;28;20416;-73
2021/07/09 04:36:53;;;;;;;3.13;2.83;;;;;;;;;;5076219;28;20452;-73
2021/07/09 04:39:19;;;;;;;3.00;2.70;;;;;;;;;;5094002;28;20424;-73
2021/07/09 04:41:45;;;;;;;3.43;3.00;;;;;;;;;;5061238;28;20469;-72
2021/07/09 04:44:11;;;;;;;6.20;3.17;;;;;;;;;;5073465;28;20941;-73
2021/07/09 04:46:37;;;;;;;3.50;2.90;;;;;;;;;;5073442;28;20426;-72
2021/07/09 04:49:03;;;;;;;3.07;2.57;;;;;;;;;;5073617;28;20757;-73
2021/07/09 04:51:29;;;;;;;3.20;2.97;;;;;;;;;;5073255;28;20406;-74
2021/07/09 04:53:55;;;;;;;4.17;3.30;;;;;;;;;;5073423;28;20915;-73
2021/07/09 04:56:21;;;;;;;3.27;2.97;;;;;;;;;;5072337;28;20444;-73
2021/07/09 04:58:47;;;;;;;2.90;2.70;;;;;;;;;;5073163;28;20410;-73
2021/07/09 05:01:13;;;;;;;3.17;2.70;;;;;;;;;;5070840;28;20434;-73
2021/07/09 05:03:39;;;;;;;3.53;2.50;;;;;;;;;;5055397;28;20429;-72
2021/07/09 05:06:05;;;;;;;3.40;3.10;;;;;;;;;;5073357;28;20427;-74
2021/07/09 05:08:31;;;;;;;4.23;2.70;;;;;;;;;;5055433;28;20449;-72
2021/07/09 05:10:57;;;;;;;3.40;3.10;;;;;;;;;;5072885;28;20414;-73
2021/07/09 05:13:23;;;;;;;3.07;2.77;;;;;;;;;;5073053;28;20422;-73
2021/07/09 05:15:49;;;;;;;8.67;3.07;;;;;;;;;;5073235;28;20838;-73
2021/07/09 05:18:15;;;;;;;3.37;3.03;;;;;;;;;;5055200;28;20442;-73
2021/07/09 05:20:41;;;;;;;3.70;2.90;;;;;;;;;;5073215;28;20512;-73
2021/07/09 05:23:07;;;;;;;3.37;3.07;;;;;;;;;;5072892;28;20975;-74
2021/07/09 05:25:33;;;;;;;4.53;3.00;;;;;;;;;;5072602;28;20757;-73
2021/07/09 05:27:59;;;;;;;2.87;2.67;;;;;;;;;;5044122;28;21066;-72
2021/07/09 05:30:25;;;;;;;3.10;2.07;;;;;;;;;;5070115;28;20433;-74
2021/07/09 05:32:51;;;;;;;3.40;3.10;;;;;;;;;;5070286;28;20437;-73
2021/07/09 05:35:17;;;;;;;2.53;2.30;;;;;;;;;;5072109;28;20993;-74
2021/07/09 05:37:43;;;;;;;3.20;2.60;;;;;;;;;;5070103;28;20761;-72
2021/07/09 05:40:10;;;;;;;3.23;2.60;;;;;;;;;;5069440;28;20975;-72
2021/07/09 05:42:36;;;;;;;4.33;2.40;;;;;;;;;;5051906;28;20481;-73
2021/07/09 05:45:02;;;;;;;3.57;2.17;;;;;;;;;;5064878;28;20960;-73
2021/07/09 05:47:29;;;;;;;2.70;2.50;;;;;;;;;;5050073;28;20449;-73
2021/07/09 05:49:55;;;;;;;3.63;2.10;;;;;;;;;;5069391;28;20465;-72
2021/07/09 05:52:21;;;;;;;2.70;2.50;;;;;;;;;;5069292;28;20828;-73
2021/07/09 05:54:47;;;;;;;2.37;2.17;;;;;;;;;;5068883;28;20509;-73
2021/07/09 05:57:13;;;;;;;5.40;2.70;;;;;;;;;;5068858;28;20444;-73
2021/07/09 05:59:39;;;;;;;3.10;2.90;;;;;;;;;;5068967;28;20888;-72
2021/07/09 06:02:05;;;;;;;3.10;2.37;;;;;;;;;;5069531;28;20501;-73
2021/07/09 06:04:31;;;;;;;2.93;2.60;;;;;;;;;;5069068;28;20429;-74
2021/07/09 06:06:57;;;;;;;4.90;2.77;;;;;;;;;;5069063;28;20445;-73
2021/07/09 06:09:23;;;;;;;5.07;2.87;;;;;;;;;;5069275;28;20781;-74
2021/07/09 06:11:49;;;;;;;2.87;2.57;;;;;;;;;;5069365;28;20433;-72
2021/07/09 06:14:15;;;;;;;3.17;2.57;;;;;;;;;;5073014;28;20457;-74
2021/07/09 06:16:41;;;;;;;2.80;2.60;;;;;;;;;;5073052;28;20430;-72
2021/07/09 06:19:07;;;;;;;2.90;2.70;;;;;;;;;;5075134;28;20444;-73
2021/07/09 06:21:34;;;;;;;6.53;2.90;;;;;;;;;;5072797;28;20464;-73
2021/07/09 06:24:00;;;;;;;3.40;3.10;;;;;;;;;;5075316;28;20801;-74
2021/07/09 06:26:26;;;;;;;3.33;3.03;;;;;;;;;;5053988;28;20773;-74
2021/07/09 06:28:52;;;;;;;4.40;3.17;;;;;;;;;;5077203;28;20457;-73
2021/07/09 06:31:18;;;;;;;2.87;2.67;;;;;;;;;;5072976;28;20429;-73
2021/07/09 06:33:44;;;;;;;2.93;2.37;;;;;;;;;;5055193;28;20473;-73
2021/07/09 06:36:10;;;;;;;2.97;2.77;;;;;;;;;;5074087;28;20435;-73
2021/07/09 06:38:36;;;;;;;4.57;3.40;;;;;;;;;;5055728;28;20517;-74
2021/07/09 06:41:02;;;;;;;3.60;3.30;;;;;;;;;;5074955;28;20429;-73
2021/07/09 06:43:28;;;;;;;3.80;3.50;;;;;;;;;;5055603;28;20469;-73
2021/07/09 06:45:54;;;;;;;3.40;3.10;;;;;;;;;;5072141;28;20441;-73
2021/07/09 06:48:20;;;;;;;3.27;3.00;;;;;;;;;;5073837;28;20448;-74
2021/07/09 06:50:46;;;;;;;3.67;3.10;;;;;;;;;;5073558;28;20927;-73
2021/07/09 06:53:12;;;;;;;5.30;2.80;;;;;;;;;;5072183;28;20429;-72
2021/07/09 06:55:38;;;;;;;3.03;2.80;;;;;;;;;;5071821;28;20944;-73
2021/07/09 06:58:04;;;;;;;3.47;3.17;;;;;;;;;;5072933;28;20508;-74
2021/07/09 07:00:30;;;;;;;4.13;3.60;;;;;;;;;;5073173;28;20520;-73
2021/07/09 07:02:56;;;;;;;3.83;3.53;;;;;;;;;;5073317;28;20477;-75
2021/07/09 07:05:22;;;;;;;4.50;3.93;;;;;;;;;;5073211;28;20430;-74
2021/07/09 07:07:48;;;;;;;4.53;4.03;;;;;;;;;;5055606;28;20481;-73
2021/07/09 07:10:14;;;;;;;3.97;3.67;;;;;;;;;;5072932;28;20448;-74
2021/07/09 07:12:45;;;;;;;4.50;4.10;;;;;;;;;;5072915;28;20577;-72
2021/07/09 07:15:11;;;;;;;4.17;3.63;;;;;;;;;;5072777;28;20493;-73
2021/07/09 07:17:37;;;;;;;3.90;3.50;;;;;;;;;;5073088;28;20449;-74
2021/07/09 07:20:04;;;;;;;3.83;3.53;;;;;;;;;;5073181;28;20437;-72
2021/07/09 07:22:30;;;;;;;4.67;4.27;;;;;;;;;;5072562;28;20477;-73
2021/07/09 07:24:56;;;;;;;4.90;3.70;;;;;;;;;;5071615;28;20440;-73
2021/07/09 07:27:27;;;;;;;4.93;4.50;;;;;;;;;;5069302;28;20924;-72
2021/07/09 07:29:55;;;;;;;5.50;4.63;;;;;;;;;;5065694;28;20438;-74
2021/07/09 07:32:21;;;;;;;4.80;4.40;;;;;;;;;;5071455;28;20860;-73
2021/07/09 07:34:47;;;;;;;5.27;4.70;;;;;;;;;;5068979;28;21456;-73
2021/07/09 07:37:13;;;;;;;5.10;4.20;;;;;;;;;;5068119;28;20491;-72
2021/07/09 07:39:39;;;;;;;4.00;3.60;;;;;;;;;;5068260;28;21126;-73
2021/07/09 07:42:05;;;;;;;4.30;3.90;;;;;;;;;;5067489;28;20477;-73
2021/07/09 07:44:31;;;;;;;6.70;4.37;;;;;;;;;;5069231;28;20430;-74
2021/07/09 07:46:57;;;;;;;3.97;3.67;;;;;;;;;;5069030;28;20484;-74
2021/07/09 07:49:23;;;;;;;5.10;4.47;;;;;;;;;;5068452;28;20769;-73
2021/07/09 07:51:50;;;;;;;4.50;4.20;;;;;;;;;;5068433;28;20935;-73
2021/07/09 07:54:17;;;;;;;6.07;4.33;;;;;;;;;;5067929;28;20792;-73
2021/07/09 07:56:43;;;;;;;4.13;3.83;;;;;;;;;;5066774;28;20441;-73
2021/07/09 07:59:09;;;;;;;6.80;4.10;;;;;;;;;;5067915;28;20522;-73
2021/07/09 08:01:35;;;;;;;4.77;4.27;;;;;;;;;;5069634;28;20828;-73
2021/07/09 08:04:01;;;;;;;6.43;3.97;;;;;;;;;;5068365;28;20851;-73
2021/07/09 08:06:27;;;;;;;4.50;4.07;;;;;;;;;;5067812;28;20426;-73
2021/07/09 08:08:54;;;;;;;5.20;3.90;;;;;;;;;;5068078;28;20797;-72
2021/07/09 08:11:20;;;;;;;6.03;4.27;;;;;;;;;;5068219;28;20439;-74
2021/07/09 08:13:46;;;;;;;4.30;3.90;;;;;;;;;;5067302;28;20469;-73
2021/07/09 08:16:11;;;;;;;4.10;3.63;;;;;;;;;;5067197;28;20442;-73
2021/07/09 08:18:37;;;;;;;6.40;4.67;;;;;;;;;;5069855;28;20943;-72
2021/07/09 08:21:04;;;;;;;4.13;3.73;;;;;;;;;;5046203;28;20433;-73
2021/07/09 08:23:30;;;;;;;5.23;4.03;;;;;;;;;;5067151;28;20470;-72
2021/07/09 08:25:56;;;;;;;4.03;3.57;;;;;;;;;;5066719;28;20436;-73
2021/07/09 08:28:23;;;;;;;3.67;3.37;;;;;;;;;;5063716;28;20518;-74
2021/07/09 08:30:49;;;;;;;4.00;3.70;;;;;;;;;;5066510;28;20430;-72
2021/07/09 08:33:15;;;;;;;4.20;3.30;;;;;;;;;;5067395;28;20449;-73
2021/07/09 08:35:41;;;;;;;7.23;4.10;;;;;;;;;;5066542;28;20793;-73
2021/07/09 08:38:08;;;;;;;4.07;3.77;;;;;;;;;;5067715;28;20442;-72
2021/07/09 08:40:34;;;;;;;4.40;4.10;;;;;;;;;;5067100;28;20426;-72
2021/07/09 08:43:00;;;;;;;3.50;3.20;;;;;;;;;;5066645;28;20488;-73
2021/07/09 08:45:26;;;;;;;4.17;3.63;;;;;;;;;;5066896;28;20509;-72
2021/07/09 08:47:53;;;;;;;3.70;3.40;;;;;;;;;;5067339;28;20433;-74
2021/07/09 08:50:20;;;;;;;3.80;3.50;;;;;;;;;;5065823;28;20444;-73
2021/07/09 08:52:46;;;;;;;4.20;3.90;;;;;;;;;;5066984;28;20433;-73
2021/07/09 08:55:12;;;;;;;3.67;3.40;;;;;;;;;;5066446;28;20418;-73
2021/07/09 08:57:42;;;;;;;10.33;3.63;;;;;;;;;;5048792;28;20478;-72
2021/07/09 09:00:26;;;;;;;5.83;3.67;;;;;;;;;;5066999;28;20429;-73
2021/07/09 09:02:53;;;;;;;4.33;3.63;;;;;;;;;;5038562;28;20482;-73
2021/07/09 09:05:20;;;;;;;6.43;4.43;;;;;;;;;;5067144;28;20414;-74
2021/07/09 09:07:49;;;;;;;5.50;3.10;;;;;;;;;;5063606;28;20430;-73
2021/07/09 09:10:15;;;;;;;5.27;3.80;;;;;;;;;;5066017;28;20430;-73
2021/07/09 09:12:46;;;;;;;4.70;3.60;;;;;;;;;;5046137;28;20445;-73
2021/07/09 09:15:12;;;;;;;9.67;3.90;;;;;;;;;;5039056;28;20473;-72
2021/07/09 09:17:38;;;;;;;3.80;3.50;;;;;;;;;;5065196;28;20802;-73
2021/07/09 09:20:10;;;;;;;3.63;3.33;;;;;;;;;;5046962;28;20441;-83
2021/07/09 09:22:39;;;;;;;2.87;2.67;;;;;;;;;;5067022;28;20477;-80
2021/07/09 09:25:05;;;;;;;3.50;2.90;;;;;;;;;;5048109;28;20426;-79
2021/07/09 09:27:31;;;;;;;5.80;3.30;;;;;;;;;;5047439;28;20452;-78
2021/07/09 09:30:08;;;;;;;3.57;2.57;;;;;;;;;;5066365;28;20981;-79
2021/07/09 09:32:35;;;;;;;4.00;3.07;;;;;;;;;;5066284;28;20505;-78
2021/07/09 09:35:01;;;;;;;3.90;2.80;;;;;;;;;;5048469;28;20438;-80
2021/07/09 09:37:28;;;;;;;3.20;2.97;;;;;;;;;;5066558;28;20782;-80
2021/07/09 09:39:54;;;;;;;3.73;3.03;;;;;;;;;;5066576;28;20448;-78
2021/07/09 09:42:25;;;;;;;4.33;3.53;;;;;;;;;;5065876;28;20547;-81
2021/07/09 09:44:57;;;;;;;3.40;3.13;;;;;;;;;;5066423;28;20461;-79
2021/07/09 09:47:23;;;;;;;4.47;3.50;;;;;;;;;;5064538;28;20513;-77
2021/07/09 09:49:54;;;;;;;3.83;3.53;;;;;;;;;;5066258;28;20433;-76
2021/07/09 09:52:40;;;;;;;4.40;4.00;;;;;;;;;;5067290;28;20422;-78
2021/07/09 09:55:07;;;;;;;4.67;3.93;;;;;;;;;;5040751;28;20517;-78
2021/07/09 09:57:33;;;;;;;3.77;3.47;;;;;;;;;;5065479;28;20417;-78
2021/07/09 10:00:00;;;;;;;3.57;3.33;;;;;;;;;;5066837;28;20773;-78
2021/07/09 10:02:26;;;;;;;4.90;4.10;;;;;;;;;;5066127;28;20470;-79
2021/07/09 10:04:55;;;;;;;4.87;3.87;;;;;;;;;;5065212;28;20418;-79
2021/07/09 10:07:21;;;;;;;4.80;4.37;;;;;;;;;;5066472;28;20434;-75
2021/07/09 10:09:47;;;;;;;8.47;4.83;;;;;;;;;;5064454;28;20916;-79
2021/07/09 10:12:17;;;;;;;9.80;8.80;;;;;;;;;;5066035;28;20430;-75
2021/07/09 10:14:45;;;;;;;10.80;9.37;;;;;;;;;;5058156;28;20477;-77
2021/07/09 10:17:11;;;;;;;14.23;8.67;;;;;;;;;;5065916;28;20422;-77
2021/07/09 10:19:41;;;;;;;6.70;6.00;;;;;;;;;;5063904;28;20442;-80
2021/07/09 10:22:07;;;;;;;8.03;7.23;;;;;;;;;;5063603;28;20461;-81
2021/07/09 10:24:40;;;;;;;4.73;4.33;;;;;;;;;;5060420;28;20446;-77
2021/07/09 10:27:06;;;;;;;4.53;4.13;;;;;;;;;;5064748;28;20433;-80
2021/07/09 10:29:34;;;;;;;4.43;4.03;;;;;;;;;;5046794;28;20864;-79
2021/07/09 10:32:01;;;;;;;6.57;4.60;;;;;;;;;;5066474;28;20444;-80
2021/07/09 10:34:27;;;;;;;5.60;4.77;;;;;;;;;;5066379;28;20434;-81
2021/07/09 10:36:55;;;;;;;4.80;4.30;;;;;;;;;;5066509;28;20434;-79
2021/07/09 10:39:38;;;;;;;6.53;5.20;;;;;;;;;;5065955;28;20422;-79
2021/07/09 10:42:14;;;;;;;13.63;6.93;;;;;;;;;;5067704;28;20485;-80
2021/07/09 10:44:55;;;;;;;6.90;5.80;;;;;;;;;;5065236;28;20651;-80
2021/07/09 10:47:21;;;;;;;6.37;5.87;;;;;;;;;;5064535;28;20503;-73
2021/07/09 10:49:50;;;;;;;11.20;7.27;;;;;;;;;;5065505;28;20456;-73
2021/07/09 10:52:35;;;;;;;9.07;7.70;;;;;;;;;;5064200;28;20422;-74
2021/07/09 10:55:01;;;;;;;9.63;8.73;;;;;;;;;;5061709;28;20508;-74
2021/07/09 10:57:27;;;;;;;9.20;8.27;;;;;;;;;;5058529;28;21921;-74
2021/07/09 11:00:12;;;;;;;9.47;8.57;;;;;;;;;;5065984;28;20438;-75
2021/07/09 11:02:56;;;;;;;9.37;8.57;;;;;;;;;;5066003;28;20473;-73
2021/07/09 11:05:42;;;;;;;10.80;8.43;;;;;;;;;;5047545;28;20871;-73
2021/07/09 11:08:34;;;;;;;8.90;8.20;;;;;;;;;;5065204;28;20765;-73
2021/07/09 11:11:03;;;;;;;10.17;9.27;;;;;;;;;;5064753;28;20429;-73
2021/07/09 11:16:23;;;;;;;9.40;8.50;;;;;;;;;;5064651;28;20510;-73
2021/07/09 11:18:53;;;;;;;9.13;8.43;;;;;;;;;;5064151;28;20446;-74
2021/07/09 11:21:34;;;;;;;9.63;8.67;;;;;;;;;;5063818;28;20434;-74
2021/07/09 11:24:02;;;;;;;8.97;8.27;;;;;;;;;;5065137;28;20457;-73
2021/07/09 11:26:32;;;;;;;9.30;8.50;;;;;;;;;;5064820;28;20445;-74
2021/07/09 11:28:58;;;;;;;7.63;6.80;;;;;;;;;;5064818;28;20532;-73
2021/07/09 11:31:32;;;;;;;7.87;7.13;;;;;;;;;;5059535;28;20454;-74
2021/07/09 11:34:08;;;;;;;6.87;5.87;;;;;;;;;;5047055;28;20474;-73
2021/07/09 11:36:45;;;;;;;7.17;6.47;;;;;;;;;;5064780;28;21017;-74
2021/07/09 11:39:12;;;;;;;8.17;6.53;;;;;;;;;;5046347;28;20442;-75
2021/07/09 11:41:55;;;;;;;7.43;6.80;;;;;;;;;;5046419;28;20438;-73
2021/07/09 11:44:22;;;;;;;6.77;6.20;;;;;;;;;;5062879;28;20452;-74
2021/07/09 11:47:08;;;;;;;6.87;6.27;;;;;;;;;;5061552;28;20463;-72
2021/07/09 11:49:37;;;;;;;6.40;5.80;;;;;;;;;;5068876;28;20426;-73
2021/07/09 11:52:05;;;;;;;7.33;6.43;;;;;;;;;;5062204;28;20457;-73
2021/07/09 11:54:32;;;;;;;7.23;5.60;;;;;;;;;;5051333;28;20434;-73
2021/07/09 11:57:04;;;;;;;6.90;6.30;;;;;;;;;;5067224;28;20651;-74
2021/07/09 11:59:30;;;;;;;6.83;6.23;;;;;;;;;;5069113;28;20540;-73
2021/07/09 12:02:03;;;;;;;5.40;5.00;;;;;;;;;;5069006;28;20472;-73
2021/07/09 12:04:30;;;;;;;5.93;5.40;;;;;;;;;;5069052;28;20940;-72
2021/07/09 12:07:15;;;;;;;5.97;5.40;;;;;;;;;;5050498;28;20527;-72
2021/07/09 12:09:45;;;;;;;6.27;5.77;;;;;;;;;;5065667;28;20453;-73
2021/07/09 12:12:12;;;;;;;5.57;5.17;;;;;;;;;;5045620;28;20782;-73
2021/07/09 12:14:57;;;;;;;6.10;5.60;;;;;;;;;;5070211;28;20534;-73
2021/07/09 12:17:23;;;;;;;14.07;7.03;;;;;;;;;;5069829;28;20477;-73
2021/07/09 12:20:04;;;;;;;6.00;5.13;;;;;;;;;;5068859;28;20763;-73
2021/07/09 12:22:31;;;;;;;6.07;4.20;;;;;;;;;;5068496;28;20481;-72
2021/07/09 12:25:01;;;;;;;5.30;4.80;;;;;;;;;;5068347;28;20438;-73
2021/07/09 12:27:29;;;;;;;5.00;4.60;;;;;;;;;;5066967;28;20446;-74
2021/07/09 12:29:55;;;;;;;4.97;4.37;;;;;;;;;;5068665;28;20484;-72
2021/07/09 12:32:21;;;;;;;6.10;5.17;;;;;;;;;;5070860;28;20416;-73
2021/07/09 12:34:48;;;;;;;5.30;4.87;;;;;;;;;;5070516;28;20947;-72
2021/07/09 12:37:14;;;;;;;4.93;4.20;;;;;;;;;;5052872;28;20502;-73
2021/07/09 12:39:40;;;;;;;6.43;4.50;;;;;;;;;;5068066;28;20429;-73
2021/07/09 12:42:10;;;;;;;3.90;3.60;;;;;;;;;;5068124;28;20468;-73
2021/07/09 12:44:36;;;;;;;4.40;4.10;;;;;;;;;;5064345;28;20450;-73
2021/07/09 12:47:02;;;;;;;3.90;3.47;;;;;;;;;;5068874;28;20444;-72
2021/07/09 12:49:28;;;;;;;3.93;3.63;;;;;;;;;;5068634;28;20916;-73
2021/07/09 12:52:04;;;;;;;4.27;3.87;;;;;;;;;;5068032;28;20436;-73
2021/07/09 12:54:32;;;;;;;4.73;2.87;;;;;;;;;;5068400;28;20432;-73
2021/07/09 12:57:03;;;;;;;4.00;3.70;;;;;;;;;;5068178;28;20921;-74
2021/07/09 12:59:29;;;;;;;5.20;3.33;;;;;;;;;;5069933;28;20434;-73
2021/07/09 13:01:58;;;;;;;4.30;3.83;;;;;;;;;;5068034;28;20519;-74
2021/07/09 13:04:28;;;;;;;3.50;3.20;;;;;;;;;;5064351;28;20441;-74
2021/07/09 13:07:13;;;;;;;5.97;3.90;;;;;;;;;;5068436;28;20449;-73
2021/07/09 13:09:40;;;;;;;3.30;3.00;;;;;;;;;;5069278;28;20433;-73
2021/07/09 13:12:19;;;;;;;3.50;3.20;;;;;;;;;;5070009;28;20493;-73
2021/07/09 13:14:49;;;;;;;3.20;3.00;;;;;;;;;;5067801;28;20469;-73
2021/07/09 13:17:17;;;;;;;3.80;3.50;;;;;;;;;;5049309;28;20430;-73
2021/07/09 13:19:43;;;;;;;4.63;3.37;;;;;;;;;;5067534;28;20430;-74
2021/07/09 13:22:09;;;;;;;3.67;3.13;;;;;;;;;;5067562;28;20480;-72
2021/07/09 13:24:37;;;;;;;3.13;2.83;;;;;;;;;;5064428;28;20467;-73
2021/07/09 13:27:03;;;;;;;4.37;3.80;;;;;;;;;;5065714;28;20430;-73
2021/07/09 13:29:30;;;;;;;6.90;4.23;;;;;;;;;;5066949;28;20963;-73
2021/07/09 13:31:58;;;;;;;4.60;3.50;;;;;;;;;;5067175;28;20434;-74
2021/07/09 13:34:24;;;;;;;4.30;3.10;;;;;;;;;;5067060;28;20783;-73
2021/07/09 13:36:50;;;;;;;4.13;3.40;;;;;;;;;;5067923;28;20430;-73
2021/07/09 13:39:17;;;;;;;3.97;3.67;;;;;;;;;;5067085;28;21080;-73
2021/07/09 13:41:44;;;;;;;3.80;3.50;;;;;;;;;;5066881;28;20434;-72
2021/07/09 13:44:10;;;;;;;5.40;3.73;;;;;;;;;;5067110;28;20441;-72
2021/07/09 13:46:36;;;;;;;4.27;3.90;;;;;;;;;;5063329;28;20441;-74
2021/07/09 13:49:03;;;;;;;3.90;3.50;;;;;;;;;;5048598;28;20932;-72
2021/07/09 13:51:29;;;;;;;4.20;3.90;;;;;;;;;;5066663;28;20434;-74
2021/07/09 13:53:55;;;;;;;4.33;4.03;;;;;;;;;;5067128;28;20457;-74
2021/07/09 13:56:21;;;;;;;4.30;3.60;;;;;;;;;;5068061;28;20426;-79
2021/07/09 13:58:47;;;;;;;5.27;4.87;;;;;;;;;;5056499;28;20991;-76
2021/07/09 14:01:14;;;;;;;6.10;3.90;;;;;;;;;;5067850;28;20437;-76
2021/07/09 14:03:41;;;;;;;4.60;4.20;;;;;;;;;;5067430;28;20477;-78
2021/07/09 14:06:08;;;;;;;4.80;3.63;;;;;;;;;;5047714;28;20773;-77
2021/07/09 14:08:34;;;;;;;8.77;4.20;;;;;;;;;;5067295;28;20789;-79
2021/07/09 14:11:02;;;;;;;3.67;3.37;;;;;;;;;;5064636;28;20544;-75
2021/07/09 14:13:29;;;;;;;2.50;2.30;;;;;;;;;;5065518;28;20434;-80
2021/07/09 14:15:55;;;;;;;3.17;2.87;;;;;;;;;;5062882;28;20532;-74
2021/07/09 14:18:21;;;;;;;3.13;2.43;;;;;;;;;;5066910;28;20546;-79
2021/07/09 14:20:48;;;;;;;6.70;2.47;;;;;;;;;;5066327;28;20434;-78
2021/07/09 14:23:15;;;;;;;2.60;2.40;;;;;;;;;;5066077;28;20486;-80
2021/07/09 14:25:43;;;;;;;3.87;1.97;;;;;;;;;;5065438;28;20433;-78
2021/07/09 14:28:10;;;;;;;2.50;2.30;;;;;;;;;;5065588;28;20430;-75
2021/07/09 14:30:36;;;;;;;3.40;2.90;;;;;;;;;;5065457;28;20759;-82
2021/07/09 14:33:03;;;;;;;3.07;2.77;;;;;;;;;;5070528;28;20441;-79
2021/07/09 14:35:29;;;;;;;3.00;2.80;;;;;;;;;;5066458;28;20469;-74
2021/07/09 14:37:55;;;;;;;3.53;3.23;;;;;;;;;;5070326;28;20530;-73
2021/07/09 14:40:22;;;;;;;3.73;2.83;;;;;;;;;;5071757;28;20788;-72
2021/07/09 14:42:49;;;;;;;3.10;2.80;;;;;;;;;;5069770;28;20477;-81
2021/07/09 14:45:15;;;;;;;3.67;3.30;;;;;;;;;;5071141;28;20933;-82
2021/07/09 14:47:41;;;;;;;2.93;2.70;;;;;;;;;;5052838;28;20460;-79